sensor_id;sensor_type;location;lat;lon;timestamp;pressure;altitude;pressure_sealevel;temperature;humidity
70304;BME280;57712;48.752;11.348;2023-01-29T00:02:06;98549.38;;;0.20;100.00
70304;BME280;57712;48.752;11.348;2023-01-29T00:04:33;98546.81;;;0.23;100.00
70304;BME280;57712;48.752;11.348;2023-01-29T00:06:59;98553.66;;;0.21;100.00
70304;BME280;57712;48.752;11.348;2023-01-29T00:09:27;98557.75;;;0.27;100.00
70304;BME280;57712;48.752;11.348;2023-01-29T00:11:53;98556.22;;;0.09;100.00
70304;BME280;57712;48.752;11.348;2023-01-29T00:14:20;98559.06;;;0.21;100.00
70304;BME280;57712;48.752;11.348;2023-01-29T00:16:46;98559.84;;;0.21;100.00
70304;BME280;57712;48.752;11.348;2023-01-29T00:19:13;98564.25;;;0.26;100.00
70304;BME280;57712;48.752;11.348;2023-01-29T00:21:39;98559.31;;;0.28;100.00
70304;BME280;57712;48.752;11.348;2023-01-29T00:24:06;98561.41;;;0.22;100.00
70304;BME280;57712;48.752;11.348;2023-01-29T00:26:32;98553.66;;;0.21;100.00
70304;BME280;57712;48.752;11.348;2023-01-29T00:28:59;98564.91;;;0.23;100.00
70304;BME280;57712;48.752;11.348;2023-01-29T00:31:27;98546.97;;;0.27;100.00
70304;BME280;57712;48.752;11.348;2023-01-29T00:33:54;98545.38;;;0.26;100.00
70304;BME280;57712;48.752;11.348;2023-01-29T00:36:21;98541.44;;;0.23;100.00
70304;BME280;57712;48.752;11.348;2023-01-29T00:39:01;98551.44;;;0.23;100.00
70304;BME280;57712;48.752;11.348;2023-01-29T00:41:36;98549.38;;;0.20;100.00
70304;BME280;57712;48.752;11.348;2023-01-29T00:44:21;98548.47;;;0.07;100.00
70304;BME280;57712;48.752;11.348;2023-01-29T00:47:07;98553.00;;;0.24;100.00
70304;BME280;57712;48.752;11.348;2023-01-29T00:49:54;98554.28;;;0.18;100.00
70304;BME280;57712;48.752;11.348;2023-01-29T00:52:20;98557.19;;;0.13;100.00
70304;BME280;57712;48.752;11.348;2023-01-29T00:54:55;98551.75;;;0.21;100.00
70304;BME280;57712;48.752;11.348;2023-01-29T00:57:24;98544.47;;;0.22;100.00
70304;BME280;57712;48.752;11.348;2023-01-29T00:59:51;98545.75;;;0.16;100.00
70304;BME280;57712;48.752;11.348;2023-01-29T01:02:18;98553.50;;;0.17;100.00
70304;BME280;57712;48.752;11.348;2023-01-29T01:05:03;98549.09;;;0.13;100.00
70304;BME280;57712;48.752;11.348;2023-01-29T01:07:31;98543.50;;;0.18;100.00
70304;BME280;57712;48.752;11.348;2023-01-29T01:09:58;98541.66;;;0.10;100.00
70304;BME280;57712;48.752;11.348;2023-01-29T01:12:43;98543.09;;;0.07;100.00
70304;BME280;57712;48.752;11.348;2023-01-29T01:15:10;98535.34;;;0.06;100.00
70304;BME280;57712;48.752;11.348;2023-01-29T01:17:37;98536.25;;;0.10;100.00
70304;BME280;57712;48.752;11.348;2023-01-29T01:20:04;98540.72;;;0.06;100.00
70304;BME280;57712;48.752;11.348;2023-01-29T01:22:30;98537.63;;;-0.14;100.00
70304;BME280;57712;48.752;11.348;2023-01-29T01:24:57;98541.75;;;-0.08;100.00
70304;BME280;57712;48.752;11.348;2023-01-29T01:27:23;98534.13;;;-0.06;100.00
70304;BME280;57712;48.752;11.348;2023-01-29T01:29:50;98530.31;;;-0.05;100.00
70304;BME280;57712;48.752;11.348;2023-01-29T01:32:17;98529.66;;;-0.02;100.00
70304;BME280;57712;48.752;11.348;2023-01-29T01:34:44;98530.78;;;-0.03;100.00
70304;BME280;57712;48.752;11.348;2023-01-29T01:37:10;98521.78;;;-0.07;100.00
70304;BME280;57712;48.752;11.348;2023-01-29T01:39:37;98520.47;;;-0.01;100.00
70304;BME280;57712;48.752;11.348;2023-01-29T01:42:08;98525.56;;;-0.08;100.00
70304;BME280;57712;48.752;11.348;2023-01-29T01:45:00;98530.34;;;-0.13;100.00
70304;BME280;57712;48.752;11.348;2023-01-29T01:47:40;98529.56;;;-0.14;100.00
70304;BME280;57712;48.752;11.348;2023-01-29T01:50:14;98521.13;;;-0.04;100.00
70304;BME280;57712;48.752;11.348;2023-01-29T01:52:45;98515.31;;;-0.14;100.00
70304;BME280;57712;48.752;11.348;2023-01-29T01:55:17;98511.28;;;0.01;100.00
70304;BME280;57712;48.752;11.348;2023-01-29T01:57:50;98515.25;;;0.03;100.00
70304;BME280;57712;48.752;11.348;2023-01-29T02:00:18;98520.94;;;0.02;100.00
70304;BME280;57712;48.752;11.348;2023-01-29T02:02:47;98507.63;;;0.05;100.00
70304;BME280;57712;48.752;11.348;2023-01-29T02:05:34;98510.63;;;0.04;100.00
70304;BME280;57712;48.752;11.348;2023-01-29T02:11:31;98516.03;;;0.04;100.00
70304;BME280;57712;48.752;11.348;2023-01-29T02:13:58;98511.88;;;0.06;100.00
70304;BME280;57712;48.752;11.348;2023-01-29T02:16:25;98511.72;;;0.11;100.00
70304;BME280;57712;48.752;11.348;2023-01-29T02:18:52;98510.44;;;0.09;100.00
70304;BME280;57712;48.752;11.348;2023-01-29T02:21:40;98525.47;;;0.10;100.00
70304;BME280;57712;48.752;11.348;2023-01-29T02:30:21;98527.16;;;-0.07;100.00
70304;BME280;57712;48.752;11.348;2023-01-29T02:33:13;98517.22;;;-0.15;100.00
70304;BME280;57712;48.752;11.348;2023-01-29T02:36:15;98518.31;;;-0.16;100.00
70304;BME280;57712;48.752;11.348;2023-01-29T02:38:53;98534.19;;;-0.23;100.00
70304;BME280;57712;48.752;11.348;2023-01-29T02:41:28;98535.94;;;-0.27;100.00
70304;BME280;57712;48.752;11.348;2023-01-29T02:44:08;98537.03;;;-0.19;100.00
70304;BME280;57712;48.752;11.348;2023-01-29T02:49:45;98530.38;;;-0.22;100.00
70304;BME280;57712;48.752;11.348;2023-01-29T02:52:18;98527.88;;;-0.27;100.00
70304;BME280;57712;48.752;11.348;2023-01-29T02:59:55;98524.84;;;-0.25;100.00
70304;BME280;57712;48.752;11.348;2023-01-29T03:02:34;98526.56;;;-0.21;100.00
70304;BME280;57712;48.752;11.348;2023-01-29T03:05:07;98536.72;;;-0.18;100.00
70304;BME280;57712;48.752;11.348;2023-01-29T03:07:40;98533.56;;;-0.20;100.00
70304;BME280;57712;48.752;11.348;2023-01-29T03:10:18;98534.63;;;-0.21;100.00
70304;BME280;57712;48.752;11.348;2023-01-29T03:12:54;98536.41;;;-0.25;100.00
70304;BME280;57712;48.752;11.348;2023-01-29T03:15:29;98530.56;;;-0.27;100.00
70304;BME280;57712;48.752;11.348;2023-01-29T03:18:07;98524.97;;;-0.22;100.00
70304;BME280;57712;48.752;11.348;2023-01-29T03:20:46;98524.34;;;-0.19;100.00
70304;BME280;57712;48.752;11.348;2023-01-29T03:23:21;98520.81;;;-0.11;100.00
70304;BME280;57712;48.752;11.348;2023-01-29T03:25:56;98511.34;;;-0.17;100.00
70304;BME280;57712;48.752;11.348;2023-01-29T03:28:44;98517.53;;;-0.16;100.00
70304;BME280;57712;48.752;11.348;2023-01-29T03:31:31;98512.59;;;-0.14;100.00
70304;BME280;57712;48.752;11.348;2023-01-29T03:34:21;98521.47;;;-0.14;100.00
70304;BME280;57712;48.752;11.348;2023-01-29T03:37:07;98532.25;;;-0.14;100.00
70304;BME280;57712;48.752;11.348;2023-01-29T03:39:39;98528.31;;;-0.16;100.00
70304;BME280;57712;48.752;11.348;2023-01-29T03:42:37;98526.84;;;-0.14;100.00
70304;BME280;57712;48.752;11.348;2023-01-29T03:45:20;98520.53;;;-0.09;100.00
70304;BME280;57712;48.752;11.348;2023-01-29T03:48:06;98514.81;;;-0.08;100.00
70304;BME280;57712;48.752;11.348;2023-01-29T03:53:23;98520.81;;;-0.11;100.00
70304;BME280;57712;48.752;11.348;2023-01-29T03:58:32;98527.06;;;-0.19;100.00
70304;BME280;57712;48.752;11.348;2023-01-29T04:01:09;98529.38;;;-0.09;100.00
70304;BME280;57712;48.752;11.348;2023-01-29T04:03:41;98526.72;;;-0.17;100.00
70304;BME280;57712;48.752;11.348;2023-01-29T04:06:10;98539.22;;;-0.13;100.00
70304;BME280;57712;48.752;11.348;2023-01-29T04:11:24;98536.53;;;-0.21;100.00
70304;BME280;57712;48.752;11.348;2023-01-29T04:13:52;98541.13;;;-0.22;100.00
70304;BME280;57712;48.752;11.348;2023-01-29T04:16:23;98537.63;;;-0.14;100.00
70304;BME280;57712;48.752;11.348;2023-01-29T04:18:53;98541.31;;;-0.18;100.00
70304;BME280;57712;48.752;11.348;2023-01-29T04:21:20;98541.44;;;-0.15;100.00
70304;BME280;57712;48.752;11.348;2023-01-29T04:23:47;98535.63;;;-0.25;100.00
70304;BME280;57712;48.752;11.348;2023-01-29T04:26:23;98534.50;;;-0.24;100.00
70304;BME280;57712;48.752;11.348;2023-01-29T04:34:49;98531.81;;;-0.24;100.00
70304;BME280;57712;48.752;11.348;2023-01-29T04:37:30;98533.25;;;-0.27;100.00
70304;BME280;57712;48.752;11.348;2023-01-29T04:40:11;98537.97;;;-0.24;100.00
70304;BME280;57712;48.752;11.348;2023-01-29T04:48:29;98530.09;;;-0.29;100.00
70304;BME280;57712;48.752;11.348;2023-01-29T04:51:14;98535.00;;;-0.31;100.00
70304;BME280;57712;48.752;11.348;2023-01-29T04:53:57;98529.13;;;-0.24;100.00
70304;BME280;57712;48.752;11.348;2023-01-29T04:56:40;98541.97;;;-0.30;100.00
70304;BME280;57712;48.752;11.348;2023-01-29T04:59:11;98537.41;;;-0.38;100.00
70304;BME280;57712;48.752;11.348;2023-01-29T05:01:42;98550.66;;;-0.33;100.00
70304;BME280;57712;48.752;11.348;2023-01-29T05:04:12;98552.91;;;-0.35;100.00
70304;BME280;57712;48.752;11.348;2023-01-29T05:06:40;98545.94;;;-0.36;100.00
70304;BME280;57712;48.752;11.348;2023-01-29T05:09:08;98549.25;;;-0.31;100.00
70304;BME280;57712;48.752;11.348;2023-01-29T05:11:35;98541.78;;;-0.25;100.00
70304;BME280;57712;48.752;11.348;2023-01-29T05:14:04;98544.47;;;-0.25;100.00
70304;BME280;57712;48.752;11.348;2023-01-29T05:16:37;98548.47;;;-0.31;100.00
70304;BME280;57712;48.752;11.348;2023-01-29T05:19:11;98553.69;;;-0.43;100.00
70304;BME280;57712;48.752;11.348;2023-01-29T05:21:41;98547.84;;;-0.45;100.00
70304;BME280;57712;48.752;11.348;2023-01-29T05:24:23;98536.75;;;-0.35;100.00
70304;BME280;57712;48.752;11.348;2023-01-29T05:26:52;98521.72;;;-0.36;100.00
70304;BME280;57712;48.752;11.348;2023-01-29T05:29:41;98520.75;;;-0.32;100.00
70304;BME280;57712;48.752;11.348;2023-01-29T05:32:10;98526.16;;;-0.40;100.00
70304;BME280;57712;48.752;11.348;2023-01-29T05:34:36;98524.44;;;-0.53;100.00
70304;BME280;57712;48.752;11.348;2023-01-29T05:37:03;98528.22;;;-0.37;100.00
70304;BME280;57712;48.752;11.348;2023-01-29T05:39:29;98530.13;;;-0.46;100.00
70304;BME280;57712;48.752;11.348;2023-01-29T05:41:56;98528.69;;;-0.44;100.00
70304;BME280;57712;48.752;11.348;2023-01-29T05:44:22;98527.44;;;-0.38;100.00
70304;BME280;57712;48.752;11.348;2023-01-29T05:46:49;98527.59;;;-0.43;100.00
70304;BME280;57712;48.752;11.348;2023-01-29T05:49:16;98525.06;;;-0.39;100.00
70304;BME280;57712;48.752;11.348;2023-01-29T05:51:45;98516.97;;;-0.31;100.00
70304;BME280;57712;48.752;11.348;2023-01-29T05:54:12;98522.63;;;-0.32;100.00
70304;BME280;57712;48.752;11.348;2023-01-29T05:56:39;98515.09;;;-0.39;100.00
70304;BME280;57712;48.752;11.348;2023-01-29T05:59:06;98522.38;;;-0.39;100.00
70304;BME280;57712;48.752;11.348;2023-01-29T06:01:32;98523.81;;;-0.50;100.00
70304;BME280;57712;48.752;11.348;2023-01-29T06:03:59;98534.06;;;-0.44;100.00
70304;BME280;57712;48.752;11.348;2023-01-29T06:06:26;98535.06;;;-0.48;100.00
70304;BME280;57712;48.752;11.348;2023-01-29T06:08:52;98536.16;;;-0.49;100.00
70304;BME280;57712;48.752;11.348;2023-01-29T06:11:19;98539.31;;;-0.47;100.00
70304;BME280;57712;48.752;11.348;2023-01-29T06:13:46;98527.13;;;-0.45;100.00
70304;BME280;57712;48.752;11.348;2023-01-29T06:16:14;98525.56;;;-0.63;100.00
70304;BME280;57712;48.752;11.348;2023-01-29T06:18:41;98525.75;;;-0.60;100.00
70304;BME280;57712;48.752;11.348;2023-01-29T06:21:11;98520.34;;;-0.60;100.00
70304;BME280;57712;48.752;11.348;2023-01-29T06:23:38;98509.41;;;-0.54;100.00
70304;BME280;57712;48.752;11.348;2023-01-29T06:26:07;98516.75;;;-0.72;100.00
70304;BME280;57712;48.752;11.348;2023-01-29T06:28:35;98520.03;;;-0.58;100.00
70304;BME280;57712;48.752;11.348;2023-01-29T06:31:03;98514.00;;;-0.64;100.00
70304;BME280;57712;48.752;11.348;2023-01-29T06:33:50;98510.06;;;-0.57;100.00
70304;BME280;57712;48.752;11.348;2023-01-29T06:36:17;98498.38;;;-0.62;100.00
70304;BME280;57712;48.752;11.348;2023-01-29T06:38:43;98493.72;;;-0.52;100.00
70304;BME280;57712;48.752;11.348;2023-01-29T06:41:11;98484.28;;;-0.59;100.00
70304;BME280;57712;48.752;11.348;2023-01-29T06:43:39;98488.34;;;-0.52;100.00
70304;BME280;57712;48.752;11.348;2023-01-29T06:46:06;98488.22;;;-0.65;100.00
70304;BME280;57712;48.752;11.348;2023-01-29T06:48:34;98494.25;;;-0.59;100.00
70304;BME280;57712;48.752;11.348;2023-01-29T06:51:06;98495.69;;;-0.62;100.00
70304;BME280;57712;48.752;11.348;2023-01-29T06:53:34;98500.72;;;-0.51;100.00
70304;BME280;57712;48.752;11.348;2023-01-29T06:56:00;98490.56;;;-0.54;100.00
70304;BME280;57712;48.752;11.348;2023-01-29T06:58:27;98501.00;;;-0.44;100.00
70304;BME280;57712;48.752;11.348;2023-01-29T07:00:53;98508.91;;;-0.39;100.00
70304;BME280;57712;48.752;11.348;2023-01-29T07:03:20;98511.19;;;-0.59;100.00
70304;BME280;57712;48.752;11.348;2023-01-29T07:05:50;98511.63;;;-0.48;100.00
70304;BME280;57712;48.752;11.348;2023-01-29T07:08:18;98517.13;;;-0.44;100.00
70304;BME280;57712;48.752;11.348;2023-01-29T07:10:48;98514.00;;;-0.46;100.00
70304;BME280;57712;48.752;11.348;2023-01-29T07:13:15;98522.38;;;-0.39;100.00
70304;BME280;57712;48.752;11.348;2023-01-29T07:15:42;98530.13;;;-0.46;100.00
70304;BME280;57712;48.752;11.348;2023-01-29T07:18:10;98533.94;;;-0.47;100.00
70304;BME280;57712;48.752;11.348;2023-01-29T07:20:40;98537.09;;;-0.45;100.00
70304;BME280;57712;48.752;11.348;2023-01-29T07:23:12;98540.91;;;-0.46;100.00
70304;BME280;57712;48.752;11.348;2023-01-29T07:25:39;98551.50;;;-0.41;100.00
70304;BME280;57712;48.752;11.348;2023-01-29T07:28:06;98553.88;;;-0.48;100.00
70304;BME280;57712;48.752;11.348;2023-01-29T07:30:33;98545.31;;;-0.42;100.00
70304;BME280;57712;48.752;11.348;2023-01-29T07:33:04;98547.22;;;-0.42;100.00
70304;BME280;57712;48.752;11.348;2023-01-29T07:35:37;98538.50;;;-0.39;100.00
70304;BME280;57712;48.752;11.348;2023-01-29T07:38:05;98535.97;;;-0.44;100.00
70304;BME280;57712;48.752;11.348;2023-01-29T07:40:32;98530.63;;;-0.53;100.00
70304;BME280;57712;48.752;11.348;2023-01-29T07:43:01;98529.22;;;-0.68;100.00
70304;BME280;57712;48.752;11.348;2023-01-29T07:45:28;98528.09;;;-0.58;100.00
70304;BME280;57712;48.752;11.348;2023-01-29T07:47:55;98533.81;;;-0.68;100.00
70304;BME280;57712;48.752;11.348;2023-01-29T07:50:23;98552.66;;;-0.60;100.00
70304;BME280;57712;48.752;11.348;2023-01-29T07:52:50;98546.13;;;-0.41;100.00
70304;BME280;57712;48.752;11.348;2023-01-29T07:55:16;98544.06;;;-0.44;100.00
70304;BME280;57712;48.752;11.348;2023-01-29T07:57:43;98545.78;;;-0.31;100.00
70304;BME280;57712;48.752;11.348;2023-01-29T08:00:10;98548.47;;;-0.31;100.00
70304;BME280;57712;48.752;11.348;2023-01-29T08:02:37;98549.09;;;-0.34;100.00
70304;BME280;57712;48.752;11.348;2023-01-29T08:05:04;98550.19;;;-0.26;100.00
70304;BME280;57712;48.752;11.348;2023-01-29T08:07:30;98549.88;;;-0.34;100.00
70304;BME280;57712;48.752;11.348;2023-01-29T08:09:57;98550.19;;;-0.26;100.00
70304;BME280;57712;48.752;11.348;2023-01-29T08:12:23;98543.22;;;-0.27;100.00
70304;BME280;57712;48.752;11.348;2023-01-29T08:14:50;98545.59;;;-0.26;100.00
70304;BME280;57712;48.752;11.348;2023-01-29T08:17:16;98553.13;;;-0.11;100.00
70304;BME280;57712;48.752;11.348;2023-01-29T08:19:43;98559.94;;;-0.05;100.00
70304;BME280;57712;48.752;11.348;2023-01-29T08:22:09;98567.22;;;-0.05;100.00
70304;BME280;57712;48.752;11.348;2023-01-29T08:24:36;98571.63;;;-0.01;100.00
70304;BME280;57712;48.752;11.348;2023-01-29T08:27:22;98567.66;;;0.06;100.00
70304;BME280;57712;48.752;11.348;2023-01-29T08:29:49;98572.94;;;-0.07;100.00
70304;BME280;57712;48.752;11.348;2023-01-29T08:32:15;98578.56;;;0.09;100.00
70304;BME280;57712;48.752;11.348;2023-01-29T08:34:42;98581.31;;;0.01;100.00
70304;BME280;57712;48.752;11.348;2023-01-29T08:37:08;98572.03;;;0.19;100.00
70304;BME280;57712;48.752;11.348;2023-01-29T08:39:35;98575.75;;;0.06;100.00
70304;BME280;57712;48.752;11.348;2023-01-29T08:42:02;98562.72;;;0.08;100.00
70304;BME280;57712;48.752;11.348;2023-01-29T08:44:28;98573.16;;;0.18;100.00
70304;BME280;57712;48.752;11.348;2023-01-29T08:46:55;98576.78;;;0.22;100.00
70304;BME280;57712;48.752;11.348;2023-01-29T08:49:21;98583.41;;;0.33;100.00
70304;BME280;57712;48.752;11.348;2023-01-29T08:51:48;98581.16;;;0.35;100.00
70304;BME280;57712;48.752;11.348;2023-01-29T08:54:16;98585.34;;;0.24;100.00
70304;BME280;57712;48.752;11.348;2023-01-29T08:56:42;98581.81;;;0.32;100.00
70304;BME280;57712;48.752;11.348;2023-01-29T08:59:09;98586.97;;;0.46;100.00
70304;BME280;57712;48.752;11.348;2023-01-29T09:01:36;98593.38;;;0.33;100.00
70304;BME280;57712;48.752;11.348;2023-01-29T09:04:02;98581.91;;;0.44;100.00
70304;BME280;57712;48.752;11.348;2023-01-29T09:06:29;98587.25;;;0.53;100.00
70304;BME280;57712;48.752;11.348;2023-01-29T09:08:55;98598.53;;;0.46;100.00
70304;BME280;57712;48.752;11.348;2023-01-29T09:11:22;98604.84;;;0.50;100.00
70304;BME280;57712;48.752;11.348;2023-01-29T09:13:48;98603.16;;;0.46;100.00
70304;BME280;57712;48.752;11.348;2023-01-29T09:16:15;98612.19;;;0.41;100.00
70304;BME280;57712;48.752;11.348;2023-01-29T09:18:41;98605.41;;;0.35;100.00
70304;BME280;57712;48.752;11.348;2023-01-29T09:21:08;98618.41;;;0.42;100.00
70304;BME280;57712;48.752;11.348;2023-01-29T09:23:35;98612.94;;;0.50;100.00
70304;BME280;57712;48.752;11.348;2023-01-29T09:26:02;98612.19;;;0.41;100.00
70304;BME280;57712;48.752;11.348;2023-01-29T09:28:28;98613.69;;;0.60;100.00
70304;BME280;57712;48.752;11.348;2023-01-29T09:30:55;98615.44;;;0.64;100.00
70304;BME280;57712;48.752;11.348;2023-01-29T09:33:22;98608.66;;;0.49;100.00
70304;BME280;57712;48.752;11.348;2023-01-29T09:35:49;98609.38;;;0.67;100.00
70304;BME280;57712;48.752;11.348;2023-01-29T09:38:16;98610.56;;;0.78;100.00
70304;BME280;57712;48.752;11.348;2023-01-29T09:43:22;98600.66;;;0.91;100.00
70304;BME280;57712;48.752;11.348;2023-01-29T09:46:00;98601.25;;;0.76;100.00
70304;BME280;57712;48.752;11.348;2023-01-29T09:48:32;98602.53;;;0.70;100.00
70304;BME280;57712;48.752;11.348;2023-01-29T09:51:04;98592.56;;;0.91;100.00
70304;BME280;57712;48.752;11.348;2023-01-29T09:53:43;98601.38;;;1.00;100.00
70304;BME280;57712;48.752;11.348;2023-01-29T09:56:17;98599.16;;;1.02;100.00
70304;BME280;57712;48.752;11.348;2023-01-29T09:58:45;98601.72;;;0.99;100.00
70304;BME280;57712;48.752;11.348;2023-01-29T10:24:37;98561.38;;;1.02;100.00
70304;BME280;57712;48.752;11.348;2023-01-29T10:27:13;98566.91;;;1.06;100.00
70304;BME280;57712;48.752;11.348;2023-01-29T10:29:42;98559.47;;;1.03;100.00
70304;BME280;57712;48.752;11.348;2023-01-29T10:32:20;98559.56;;;1.15;100.00
70304;BME280;57712;48.752;11.348;2023-01-29T10:35:17;98544.16;;;1.15;100.00
70304;BME280;57712;48.752;11.348;2023-01-29T10:37:39;98546.47;;;1.38;100.00
70304;BME280;57712;48.752;11.348;2023-01-29T10:40:27;98540.59;;;1.03;100.00
70304;BME280;57712;48.752;11.348;2023-01-29T10:43:28;98542.16;;;0.83;100.00
70304;BME280;57712;48.752;11.348;2023-01-29T10:46:29;98545.34;;;0.64;100.00
70304;BME280;57712;48.752;11.348;2023-01-29T10:49:14;98546.50;;;0.54;100.00
70304;BME280;57712;48.752;11.348;2023-01-29T11:00:19;98528.50;;;0.38;100.00
70304;BME280;57712;48.752;11.348;2023-01-29T11:02:48;98531.91;;;0.55;100.00
70304;BME280;57712;48.752;11.348;2023-01-29T11:05:32;98517.09;;;0.11;100.00
70304;BME280;57712;48.752;11.348;2023-01-29T11:08:04;98524.66;;;0.18;100.00
70304;BME280;57712;48.752;11.348;2023-01-29T11:10:36;98507.75;;;0.38;100.00
70304;BME280;57712;48.752;11.348;2023-01-29T11:13:12;98504.28;;;0.58;100.00
70304;BME280;57712;48.752;11.348;2023-01-29T11:15:39;98502.06;;;0.31;100.00
70304;BME280;57712;48.752;11.348;2023-01-29T11:18:11;98499.56;;;0.76;100.00
70304;BME280;57712;48.752;11.348;2023-01-29T11:20:42;98501.91;;;0.57;100.00
70304;BME280;57712;48.752;11.348;2023-01-29T11:23:38;98507.81;;;0.50;100.00
70304;BME280;57712;48.752;11.348;2023-01-29T11:26:05;98500.06;;;0.70;100.00
70304;BME280;57712;48.752;11.348;2023-01-29T11:31:01;98491.47;;;0.97;100.00
70304;BME280;57712;48.752;11.348;2023-01-29T11:33:29;98492.25;;;0.77;100.00
70304;BME280;57712;48.752;11.348;2023-01-29T11:35:55;98492.38;;;0.80;100.00
70304;BME280;57712;48.752;11.348;2023-01-29T11:38:27;98498.09;;;0.37;100.00
70304;BME280;57712;48.752;11.348;2023-01-29T11:41:06;98494.91;;;0.65;100.00
70304;BME280;57712;48.752;11.348;2023-01-29T11:43:39;98498.94;;;0.71;100.00
70304;BME280;57712;48.752;11.348;2023-01-29T11:46:12;98495.63;;;0.74;100.00
70304;BME280;57712;48.752;11.348;2023-01-29T11:48:43;98491.13;;;0.78;100.00
70304;BME280;57712;48.752;11.348;2023-01-29T11:51:20;98493.44;;;0.46;100.00
70304;BME280;57712;48.752;11.348;2023-01-29T11:54:01;98483.06;;;0.78;100.00
70304;BME280;57712;48.752;11.348;2023-01-29T11:56:39;98482.72;;;0.58;100.00
70304;BME280;57712;48.752;11.348;2023-01-29T11:59:25;98474.09;;;0.86;100.00
70304;BME280;57712;48.752;11.348;2023-01-29T12:01:53;98474.84;;;0.74;100.00
70304;BME280;57712;48.752;11.348;2023-01-29T12:04:24;98463.00;;;0.67;100.00
70304;BME280;57712;48.752;11.348;2023-01-29T12:06:52;98446.94;;;0.49;100.00
70304;BME280;57712;48.752;11.348;2023-01-29T12:09:24;98444.53;;;0.56;100.00
70304;BME280;57712;48.752;11.348;2023-01-29T12:11:53;98450.50;;;0.62;100.00
70304;BME280;57712;48.752;11.348;2023-01-29T12:14:31;98446.16;;;0.70;100.00
70304;BME280;57712;48.752;11.348;2023-01-29T12:17:20;98437.63;;;0.68;100.00
70304;BME280;57712;48.752;11.348;2023-01-29T12:19:54;98436.09;;;0.79;100.00
70304;BME280;57712;48.752;11.348;2023-01-29T12:22:38;98447.28;;;1.02;100.00
70304;BME280;57712;48.752;11.348;2023-01-29T12:25:17;98449.38;;;1.17;100.00
70304;BME280;57712;48.752;11.348;2023-01-29T12:30:52;98418.63;;;0.97;100.00
70304;BME280;57712;48.752;11.348;2023-01-29T12:38:46;98404.63;;;0.83;100.00
70304;BME280;57712;48.752;11.348;2023-01-29T12:43:58;98391.56;;;0.73;100.00
70304;BME280;57712;48.752;11.348;2023-01-29T12:46:32;98393.03;;;0.70;100.00
70304;BME280;57712;48.752;11.348;2023-01-29T12:49:02;98399.94;;;0.92;100.00
70304;BME280;57712;48.752;11.348;2023-01-29T12:51:45;98398.44;;;1.15;100.00
70304;BME280;57712;48.752;11.348;2023-01-29T12:54:18;98402.13;;;1.11;100.00
70304;BME280;57712;48.752;11.348;2023-01-29T12:56:55;98399.13;;;0.79;100.00
70304;BME280;57712;48.752;11.348;2023-01-29T12:59:40;98397.13;;;0.89;100.00
70304;BME280;57712;48.752;11.348;2023-01-29T13:04:44;98389.50;;;0.57;100.00
70304;BME280;57712;48.752;11.348;2023-01-29T13:07:19;98390.16;;;0.54;100.00
70304;BME280;57712;48.752;11.348;2023-01-29T13:09:53;98381.34;;;0.45;100.00
70304;BME280;57712;48.752;11.348;2023-01-29T13:12:22;98386.19;;;0.52;100.00
70304;BME280;57712;48.752;11.348;2023-01-29T13:14:56;98379.13;;;0.80;100.00
70304;BME280;57712;48.752;11.348;2023-01-29T13:17:29;98388.41;;;0.71;100.00
70304;BME280;57712;48.752;11.348;2023-01-29T13:20:03;98386.56;;;0.83;100.00
70304;BME280;57712;48.752;11.348;2023-01-29T13:22:37;98373.31;;;0.57;100.00
70304;BME280;57712;48.752;11.348;2023-01-29T13:25:05;98366.84;;;0.71;100.00
70304;BME280;57712;48.752;11.348;2023-01-29T13:27:37;98377.22;;;0.81;100.00
70304;BME280;57712;48.752;11.348;2023-01-29T13:30:04;98368.66;;;0.79;100.00
70304;BME280;57712;48.752;11.348;2023-01-29T13:32:34;98380.84;;;0.85;100.00
70304;BME280;57712;48.752;11.348;2023-01-29T13:35:12;98373.72;;;0.80;100.00
70304;BME280;57712;48.752;11.348;2023-01-29T13:37:49;98369.09;;;0.69;100.00
70304;BME280;57712;48.752;11.348;2023-01-29T13:40:23;98366.34;;;0.90;100.00
70304;BME280;57712;48.752;11.348;2023-01-29T13:42:52;98364.16;;;0.71;100.00
70304;BME280;57712;48.752;11.348;2023-01-29T13:45:23;98366.41;;;0.69;100.00
70304;BME280;57712;48.752;11.348;2023-01-29T13:47:51;98360.88;;;1.10;100.00
70304;BME280;57712;48.752;11.348;2023-01-29T13:50:39;98354.69;;;0.98;100.00
70304;BME280;57712;48.752;11.348;2023-01-29T13:53:08;98359.88;;;0.70;100.00
70304;BME280;57712;48.752;11.348;2023-01-29T13:55:44;98356.13;;;0.62;100.00
70304;BME280;57712;48.752;11.348;2023-01-29T14:01:08;98349.78;;;0.67;100.00
70304;BME280;57712;48.752;11.348;2023-01-29T14:03:42;98354.44;;;0.57;100.00
70304;BME280;57712;48.752;11.348;2023-01-29T14:06:43;98353.81;;;0.73;100.00
70304;BME280;57712;48.752;11.348;2023-01-29T14:17:20;98369.09;;;0.69;100.00
70304;BME280;57712;48.752;11.348;2023-01-29T14:19:49;98375.06;;;0.74;100.00
70304;BME280;57712;48.752;11.348;2023-01-29T14:22:21;98388.22;;;0.76;100.00
70304;BME280;57712;48.752;11.348;2023-01-29T14:24:56;98384.88;;;0.91;100.00
70304;BME280;57712;48.752;11.348;2023-01-29T14:27:25;98383.41;;;0.81;100.00
70304;BME280;57712;48.752;11.348;2023-01-29T14:29:58;98369.50;;;0.58;100.00
70304;BME280;57712;48.752;11.348;2023-01-29T14:32:26;98362.53;;;0.57;100.00
70304;BME280;57712;48.752;11.348;2023-01-29T14:34:59;98347.53;;;0.69;100.00
70304;BME280;57712;48.752;11.348;2023-01-29T14:37:39;98341.81;;;0.82;100.00
70304;BME280;57712;48.752;11.348;2023-01-29T14:43:04;98356.34;;;0.57;100.00
70304;BME280;57712;48.752;11.348;2023-01-29T14:45:35;98353.03;;;0.72;100.00
70304;BME280;57712;48.752;11.348;2023-01-29T14:53:05;98356.72;;;0.68;100.00
70304;BME280;57712;48.752;11.348;2023-01-29T14:55:39;98348.91;;;0.75;100.00
70304;BME280;57712;48.752;11.348;2023-01-29T14:58:13;98355.63;;;0.81;100.00